sensor_id;sensor_type;location;lat;lon;timestamp;temperature;humidity
44487;DHT22;30191;50.908;6.962;2022-07-17T00:00:37;20.50;86.20
44487;DHT22;30191;50.908;6.962;2022-07-17T00:03:08;20.50;86.60
44487;DHT22;30191;50.908;6.962;2022-07-17T00:05:35;20.40;86.90
44487;DHT22;30191;50.908;6.962;2022-07-17T00:08:00;20.30;87.60
44487;DHT22;30191;50.908;6.962;2022-07-17T00:10:26;20.10;88.40
44487;DHT22;30191;50.908;6.962;2022-07-17T00:12:52;20.10;89.00
44487;DHT22;30191;50.908;6.962;2022-07-17T00:15:18;20.00;89.90
44487;DHT22;30191;50.908;6.962;2022-07-17T00:17:44;20.00;90.10
44487;DHT22;30191;50.908;6.962;2022-07-17T00:20:11;20.00;90.40
44487;DHT22;30191;50.908;6.962;2022-07-17T00:22:37;19.90;90.50
44487;DHT22;30191;50.908;6.962;2022-07-17T00:25:04;19.90;90.80
44487;DHT22;30191;50.908;6.962;2022-07-17T00:27:29;19.70;91.20
44487;DHT22;30191;50.908;6.962;2022-07-17T00:29:55;19.70;91.50
44487;DHT22;30191;50.908;6.962;2022-07-17T00:32:21;19.60;91.90
44487;DHT22;30191;50.908;6.962;2022-07-17T00:34:49;19.50;92.30
44487;DHT22;30191;50.908;6.962;2022-07-17T00:37:15;19.40;92.60
44487;DHT22;30191;50.908;6.962;2022-07-17T00:39:41;19.40;92.90
44487;DHT22;30191;50.908;6.962;2022-07-17T00:42:11;19.40;93.10
44487;DHT22;30191;50.908;6.962;2022-07-17T00:44:37;19.50;93.10
44487;DHT22;30191;50.908;6.962;2022-07-17T00:47:13;19.40;93.60
44487;DHT22;30191;50.908;6.962;2022-07-17T00:49:39;19.30;93.90
44487;DHT22;30191;50.908;6.962;2022-07-17T00:52:05;19.20;94.30
44487;DHT22;30191;50.908;6.962;2022-07-17T00:54:35;19.20;94.50
44487;DHT22;30191;50.908;6.962;2022-07-17T00:57:06;19.10;95.10
44487;DHT22;30191;50.908;6.962;2022-07-17T00:59:32;19.00;95.50
44487;DHT22;30191;50.908;6.962;2022-07-17T01:02:00;18.90;95.90
44487;DHT22;30191;50.908;6.962;2022-07-17T01:04:27;18.90;96.20
44487;DHT22;30191;50.908;6.962;2022-07-17T01:06:53;18.80;96.70
44487;DHT22;30191;50.908;6.962;2022-07-17T01:09:19;18.70;97.60
44487;DHT22;30191;50.908;6.962;2022-07-17T01:11:46;18.50;98.10
44487;DHT22;30191;50.908;6.962;2022-07-17T01:14:12;18.50;98.50
44487;DHT22;30191;50.908;6.962;2022-07-17T01:16:39;18.50;98.90
44487;DHT22;30191;50.908;6.962;2022-07-17T01:19:07;18.40;99.20
44487;DHT22;30191;50.908;6.962;2022-07-17T01:21:43;18.40;99.60
44487;DHT22;30191;50.908;6.962;2022-07-17T01:24:10;18.40;99.90
44487;DHT22;30191;50.908;6.962;2022-07-17T01:26:36;18.40;99.90
44487;DHT22;30191;50.908;6.962;2022-07-17T01:29:02;18.40;99.90
44487;DHT22;30191;50.908;6.962;2022-07-17T01:31:29;18.30;99.90
44487;DHT22;30191;50.908;6.962;2022-07-17T01:33:54;18.20;99.90
44487;DHT22;30191;50.908;6.962;2022-07-17T01:36:22;18.10;99.90
44487;DHT22;30191;50.908;6.962;2022-07-17T01:38:49;18.00;99.90
44487;DHT22;30191;50.908;6.962;2022-07-17T01:41:14;17.90;99.90
44487;DHT22;30191;50.908;6.962;2022-07-17T01:43:41;17.90;99.90
44487;DHT22;30191;50.908;6.962;2022-07-17T01:46:06;17.90;99.90
44487;DHT22;30191;50.908;6.962;2022-07-17T01:48:32;17.80;99.90
44487;DHT22;30191;50.908;6.962;2022-07-17T01:50:58;17.80;99.90
44487;DHT22;30191;50.908;6.962;2022-07-17T01:53:24;17.70;99.90
44487;DHT22;30191;50.908;6.962;2022-07-17T01:55:49;17.80;99.90
44487;DHT22;30191;50.908;6.962;2022-07-17T01:58:15;17.90;99.90
44487;DHT22;30191;50.908;6.962;2022-07-17T02:00:41;17.90;99.90
44487;DHT22;30191;50.908;6.962;2022-07-17T02:03:07;17.70;99.90
44487;DHT22;30191;50.908;6.962;2022-07-17T02:05:33;17.60;99.90
44487;DHT22;30191;50.908;6.962;2022-07-17T02:07:58;17.60;99.90
44487;DHT22;30191;50.908;6.962;2022-07-17T02:10:24;17.60;99.90
44487;DHT22;30191;50.908;6.962;2022-07-17T02:12:50;17.50;99.90
44487;DHT22;30191;50.908;6.962;2022-07-17T02:15:15;17.50;99.90
44487;DHT22;30191;50.908;6.962;2022-07-17T02:17:42;17.60;99.90
44487;DHT22;30191;50.908;6.962;2022-07-17T02:20:08;17.50;99.90
44487;DHT22;30191;50.908;6.962;2022-07-17T02:22:36;17.40;99.90
44487;DHT22;30191;50.908;6.962;2022-07-17T02:25:03;17.30;99.90
44487;DHT22;30191;50.908;6.962;2022-07-17T02:27:31;17.30;99.90
44487;DHT22;30191;50.908;6.962;2022-07-17T02:29:57;17.30;99.90
44487;DHT22;30191;50.908;6.962;2022-07-17T02:32:22;17.20;99.90
44487;DHT22;30191;50.908;6.962;2022-07-17T02:34:48;17.10;99.90
44487;DHT22;30191;50.908;6.962;2022-07-17T02:37:14;17.10;99.90
44487;DHT22;30191;50.908;6.962;2022-07-17T02:39:40;17.10;99.90
44487;DHT22;30191;50.908;6.962;2022-07-17T02:42:28;17.10;99.90
44487;DHT22;30191;50.908;6.962;2022-07-17T02:44:54;17.00;99.90
44487;DHT22;30191;50.908;6.962;2022-07-17T02:47:28;17.00;99.90
44487;DHT22;30191;50.908;6.962;2022-07-17T02:49:55;17.10;99.90
44487;DHT22;30191;50.908;6.962;2022-07-17T02:52:21;17.20;99.90
44487;DHT22;30191;50.908;6.962;2022-07-17T02:54:47;17.40;99.90
44487;DHT22;30191;50.908;6.962;2022-07-17T02:57:13;17.40;99.90
44487;DHT22;30191;50.908;6.962;2022-07-17T02:59:39;17.40;99.90
44487;DHT22;30191;50.908;6.962;2022-07-17T03:02:05;17.60;99.90
44487;DHT22;30191;50.908;6.962;2022-07-17T03:04:31;17.70;99.90
44487;DHT22;30191;50.908;6.962;2022-07-17T03:06:57;17.60;99.90
44487;DHT22;30191;50.908;6.962;2022-07-17T03:09:22;17.50;99.90
44487;DHT22;30191;50.908;6.962;2022-07-17T03:11:48;17.40;99.90
44487;DHT22;30191;50.908;6.962;2022-07-17T03:14:14;17.40;99.90
44487;DHT22;30191;50.908;6.962;2022-07-17T03:16:39;17.50;99.90
44487;DHT22;30191;50.908;6.962;2022-07-17T03:19:05;17.30;99.90
44487;DHT22;30191;50.908;6.962;2022-07-17T03:21:31;17.30;99.90
44487;DHT22;30191;50.908;6.962;2022-07-17T03:23:56;17.20;99.90
44487;DHT22;30191;50.908;6.962;2022-07-17T03:26:22;17.10;99.90
44487;DHT22;30191;50.908;6.962;2022-07-17T03:28:48;17.10;99.90
44487;DHT22;30191;50.908;6.962;2022-07-17T03:31:13;17.20;99.90
44487;DHT22;30191;50.908;6.962;2022-07-17T03:33:39;17.20;99.90
44487;DHT22;30191;50.908;6.962;2022-07-17T03:36:05;17.10;99.90
44487;DHT22;30191;50.908;6.962;2022-07-17T03:38:31;17.00;99.90
44487;DHT22;30191;50.908;6.962;2022-07-17T03:40:57;17.10;99.90
44487;DHT22;30191;50.908;6.962;2022-07-17T03:43:23;17.20;99.90
44487;DHT22;30191;50.908;6.962;2022-07-17T03:45:49;17.20;99.90
44487;DHT22;30191;50.908;6.962;2022-07-17T03:48:14;17.20;99.90
44487;DHT22;30191;50.908;6.962;2022-07-17T03:50:40;17.10;99.90
44487;DHT22;30191;50.908;6.962;2022-07-17T03:53:06;16.90;99.90
44487;DHT22;30191;50.908;6.962;2022-07-17T03:55:32;17.00;99.90
44487;DHT22;30191;50.908;6.962;2022-07-17T03:57:57;17.00;99.90
44487;DHT22;30191;50.908;6.962;2022-07-17T04:00:23;17.00;99.90
44487;DHT22;30191;50.908;6.962;2022-07-17T04:02:49;16.80;99.90
44487;DHT22;30191;50.908;6.962;2022-07-17T04:05:14;16.80;99.90
44487;DHT22;30191;50.908;6.962;2022-07-17T04:07:41;16.80;99.90
44487;DHT22;30191;50.908;6.962;2022-07-17T04:10:08;16.70;99.90
44487;DHT22;30191;50.908;6.962;2022-07-17T04:12:34;16.60;99.90
44487;DHT22;30191;50.908;6.962;2022-07-17T04:15:00;16.50;99.90
44487;DHT22;30191;50.908;6.962;2022-07-17T04:17:26;16.70;99.90
44487;DHT22;30191;50.908;6.962;2022-07-17T04:19:52;16.80;99.90
44487;DHT22;30191;50.908;6.962;2022-07-17T04:22:18;17.00;99.90
44487;DHT22;30191;50.908;6.962;2022-07-17T04:24:45;17.00;99.90
44487;DHT22;30191;50.908;6.962;2022-07-17T04:27:11;17.00;99.90
44487;DHT22;30191;50.908;6.962;2022-07-17T04:29:37;16.90;99.90
44487;DHT22;30191;50.908;6.962;2022-07-17T04:32:03;17.00;99.90
44487;DHT22;30191;50.908;6.962;2022-07-17T04:34:29;17.00;99.90
44487;DHT22;30191;50.908;6.962;2022-07-17T04:36:55;17.10;99.90
44487;DHT22;30191;50.908;6.962;2022-07-17T04:39:21;17.00;99.90
44487;DHT22;30191;50.908;6.962;2022-07-17T04:41:48;17.00;99.90
44487;DHT22;30191;50.908;6.962;2022-07-17T04:44:14;16.90;99.90
44487;DHT22;30191;50.908;6.962;2022-07-17T04:46:39;16.90;99.90
44487;DHT22;30191;50.908;6.962;2022-07-17T04:49:05;16.90;99.90
44487;DHT22;30191;50.908;6.962;2022-07-17T04:51:31;16.90;99.90
44487;DHT22;30191;50.908;6.962;2022-07-17T04:53:56;16.80;99.90
44487;DHT22;30191;50.908;6.962;2022-07-17T04:56:22;16.80;99.90
44487;DHT22;30191;50.908;6.962;2022-07-17T04:58:48;16.80;99.90
44487;DHT22;30191;50.908;6.962;2022-07-17T05:01:13;16.70;99.90
44487;DHT22;30191;50.908;6.962;2022-07-17T05:03:39;16.80;99.90
44487;DHT22;30191;50.908;6.962;2022-07-17T05:06:05;16.80;99.90
44487;DHT22;30191;50.908;6.962;2022-07-17T05:08:31;16.90;99.90
44487;DHT22;30191;50.908;6.962;2022-07-17T05:10:57;16.90;99.90
44487;DHT22;30191;50.908;6.962;2022-07-17T05:13:22;16.90;99.90
44487;DHT22;30191;50.908;6.962;2022-07-17T05:15:48;17.00;99.90
44487;DHT22;30191;50.908;6.962;2022-07-17T05:18:15;17.00;99.90
44487;DHT22;30191;50.908;6.962;2022-07-17T05:20:41;17.00;99.90
44487;DHT22;30191;50.908;6.962;2022-07-17T05:23:06;17.10;99.90
44487;DHT22;30191;50.908;6.962;2022-07-17T05:25:32;17.10;99.90
44487;DHT22;30191;50.908;6.962;2022-07-17T05:27:58;17.10;99.90
44487;DHT22;30191;50.908;6.962;2022-07-17T05:30:24;17.10;99.90
44487;DHT22;30191;50.908;6.962;2022-07-17T05:32:49;17.00;99.90
44487;DHT22;30191;50.908;6.962;2022-07-17T05:35:15;17.00;99.90
44487;DHT22;30191;50.908;6.962;2022-07-17T05:37:41;17.00;99.90
44487;DHT22;30191;50.908;6.962;2022-07-17T05:40:07;17.00;99.90
44487;DHT22;30191;50.908;6.962;2022-07-17T05:42:33;17.00;99.90
44487;DHT22;30191;50.908;6.962;2022-07-17T05:44:59;17.00;99.90
44487;DHT22;30191;50.908;6.962;2022-07-17T05:47:25;17.10;99.90
44487;DHT22;30191;50.908;6.962;2022-07-17T05:49:51;17.10;99.90
44487;DHT22;30191;50.908;6.962;2022-07-17T05:52:16;17.00;99.90
44487;DHT22;30191;50.908;6.962;2022-07-17T05:54:42;17.20;99.90
44487;DHT22;30191;50.908;6.962;2022-07-17T05:57:08;17.20;99.90
44487;DHT22;30191;50.908;6.962;2022-07-17T05:59:34;17.20;99.90
44487;DHT22;30191;50.908;6.962;2022-07-17T06:02:00;17.20;99.90
44487;DHT22;30191;50.908;6.962;2022-07-17T06:04:25;17.10;99.90
44487;DHT22;30191;50.908;6.962;2022-07-17T06:06:51;17.20;99.90
44487;DHT22;30191;50.908;6.962;2022-07-17T06:09:17;17.20;99.90
44487;DHT22;30191;50.908;6.962;2022-07-17T06:11:43;17.30;99.90
44487;DHT22;30191;50.908;6.962;2022-07-17T06:14:08;17.30;99.90
44487;DHT22;30191;50.908;6.962;2022-07-17T06:16:34;17.20;99.90
44487;DHT22;30191;50.908;6.962;2022-07-17T06:19:00;17.20;99.90
44487;DHT22;30191;50.908;6.962;2022-07-17T06:21:25;17.20;99.90
44487;DHT22;30191;50.908;6.962;2022-07-17T06:23:51;17.40;99.90
44487;DHT22;30191;50.908;6.962;2022-07-17T06:26:17;17.50;99.90
44487;DHT22;30191;50.908;6.962;2022-07-17T06:28:42;17.50;99.90
44487;DHT22;30191;50.908;6.962;2022-07-17T06:31:08;17.60;99.90
44487;DHT22;30191;50.908;6.962;2022-07-17T06:33:34;17.70;99.90
44487;DHT22;30191;50.908;6.962;2022-07-17T06:36:00;17.70;99.90
44487;DHT22;30191;50.908;6.962;2022-07-17T06:38:26;17.70;99.90
44487;DHT22;30191;50.908;6.962;2022-07-17T06:40:52;17.70;99.90
44487;DHT22;30191;50.908;6.962;2022-07-17T06:43:18;17.70;99.90
44487;DHT22;30191;50.908;6.962;2022-07-17T06:45:43;17.90;99.90
44487;DHT22;30191;50.908;6.962;2022-07-17T06:48:09;17.90;99.90
44487;DHT22;30191;50.908;6.962;2022-07-17T06:50:35;17.90;99.90
44487;DHT22;30191;50.908;6.962;2022-07-17T06:53:01;17.90;99.90
44487;DHT22;30191;50.908;6.962;2022-07-17T06:55:26;18.00;99.90
44487;DHT22;30191;50.908;6.962;2022-07-17T06:57:52;18.10;99.90
44487;DHT22;30191;50.908;6.962;2022-07-17T07:00:17;18.10;99.90
44487;DHT22;30191;50.908;6.962;2022-07-17T07:02:44;18.20;99.90
44487;DHT22;30191;50.908;6.962;2022-07-17T07:05:10;18.30;99.90
44487;DHT22;30191;50.908;6.962;2022-07-17T07:07:36;18.30;99.90
44487;DHT22;30191;50.908;6.962;2022-07-17T07:10:02;18.20;99.90
44487;DHT22;30191;50.908;6.962;2022-07-17T07:12:28;18.20;99.90
44487;DHT22;30191;50.908;6.962;2022-07-17T07:14:54;18.20;99.90
44487;DHT22;30191;50.908;6.962;2022-07-17T07:17:20;18.30;99.90
44487;DHT22;30191;50.908;6.962;2022-07-17T07:19:46;18.40;99.90
44487;DHT22;30191;50.908;6.962;2022-07-17T07:22:12;18.40;99.90
44487;DHT22;30191;50.908;6.962;2022-07-17T07:24:37;18.40;99.90
44487;DHT22;30191;50.908;6.962;2022-07-17T07:27:03;18.50;99.90
44487;DHT22;30191;50.908;6.962;2022-07-17T07:29:29;18.50;99.90
44487;DHT22;30191;50.908;6.962;2022-07-17T07:31:55;18.60;99.90
44487;DHT22;30191;50.908;6.962;2022-07-17T07:34:21;18.70;99.90
44487;DHT22;30191;50.908;6.962;2022-07-17T07:36:47;18.70;99.90
44487;DHT22;30191;50.908;6.962;2022-07-17T07:39:12;18.80;99.90
44487;DHT22;30191;50.908;6.962;2022-07-17T07:41:38;18.90;99.90
44487;DHT22;30191;50.908;6.962;2022-07-17T07:44:04;18.90;99.90
44487;DHT22;30191;50.908;6.962;2022-07-17T07:46:30;18.90;99.90
44487;DHT22;30191;50.908;6.962;2022-07-17T07:48:55;18.80;99.90
44487;DHT22;30191;50.908;6.962;2022-07-17T07:51:21;18.80;99.90
44487;DHT22;30191;50.908;6.962;2022-07-17T07:53:47;18.80;99.90
44487;DHT22;30191;50.908;6.962;2022-07-17T07:56:12;19.00;99.90
44487;DHT22;30191;50.908;6.962;2022-07-17T07:58:38;19.10;99.90
44487;DHT22;30191;50.908;6.962;2022-07-17T08:01:04;19.10;99.90
44487;DHT22;30191;50.908;6.962;2022-07-17T08:03:29;19.20;99.90
44487;DHT22;30191;50.908;6.962;2022-07-17T08:05:55;19.30;99.90
44487;DHT22;30191;50.908;6.962;2022-07-17T08:08:21;19.30;99.90
44487;DHT22;30191;50.908;6.962;2022-07-17T08:10:47;19.40;99.90
44487;DHT22;30191;50.908;6.962;2022-07-17T08:13:13;19.50;99.90
44487;DHT22;30191;50.908;6.962;2022-07-17T08:15:39;19.50;99.90
44487;DHT22;30191;50.908;6.962;2022-07-17T08:18:04;19.60;99.90
44487;DHT22;30191;50.908;6.962;2022-07-17T08:20:30;19.60;99.90
44487;DHT22;30191;50.908;6.962;2022-07-17T08:22:56;19.60;99.90
44487;DHT22;30191;50.908;6.962;2022-07-17T08:25:21;19.60;99.90
44487;DHT22;30191;50.908;6.962;2022-07-17T08:27:47;19.70;99.90
44487;DHT22;30191;50.908;6.962;2022-07-17T08:30:14;19.70;99.90
44487;DHT22;30191;50.908;6.962;2022-07-17T08:32:41;19.80;99.90
44487;DHT22;30191;50.908;6.962;2022-07-17T08:35:08;19.80;99.90
44487;DHT22;30191;50.908;6.962;2022-07-17T08:37:48;19.80;99.90
44487;DHT22;30191;50.908;6.962;2022-07-17T08:40:25;19.90;99.90
44487;DHT22;30191;50.908;6.962;2022-07-17T08:42:52;19.90;99.90
44487;DHT22;30191;50.908;6.962;2022-07-17T08:45:18;19.90;99.90
44487;DHT22;30191;50.908;6.962;2022-07-17T08:47:44;19.90;99.90
44487;DHT22;30191;50.908;6.962;2022-07-17T08:50:11;19.90;99.90
44487;DHT22;30191;50.908;6.962;2022-07-17T08:52:39;19.90;99.90
44487;DHT22;30191;50.908;6.962;2022-07-17T08:55:11;20.00;99.70
44487;DHT22;30191;50.908;6.962;2022-07-17T08:57:39;20.10;99.60
44487;DHT22;30191;50.908;6.962;2022-07-17T09:00:06;20.10;99.20
44487;DHT22;30191;50.908;6.962;2022-07-17T09:02:32;20.10;98.70
44487;DHT22;30191;50.908;6.962;2022-07-17T09:04:57;20.10;98.50
44487;DHT22;30191;50.908;6.962;2022-07-17T09:07:23;20.20;98.50
44487;DHT22;30191;50.908;6.962;2022-07-17T09:09:50;20.30;98.30
44487;DHT22;30191;50.908;6.962;2022-07-17T09:12:16;20.30;98.20
44487;DHT22;30191;50.908;6.962;2022-07-17T09:14:42;20.30;98.00
44487;DHT22;30191;50.908;6.962;2022-07-17T09:17:09;20.30;98.00
44487;DHT22;30191;50.908;6.962;2022-07-17T09:19:40;20.40;97.80
44487;DHT22;30191;50.908;6.962;2022-07-17T09:22:15;20.50;97.00
44487;DHT22;30191;50.908;6.962;2022-07-17T09:24:52;20.40;97.30
44487;DHT22;30191;50.908;6.962;2022-07-17T09:29:54;20.60;97.10
44487;DHT22;30191;50.908;6.962;2022-07-17T09:32:21;20.70;97.20
44487;DHT22;30191;50.908;6.962;2022-07-17T09:34:48;20.80;98.20
44487;DHT22;30191;50.908;6.962;2022-07-17T09:37:14;21.00;98.60
44487;DHT22;30191;50.908;6.962;2022-07-17T09:39:41;21.20;97.60
44487;DHT22;30191;50.908;6.962;2022-07-17T09:42:07;21.50;97.50
44487;DHT22;30191;50.908;6.962;2022-07-17T09:44:33;21.60;97.40
44487;DHT22;30191;50.908;6.962;2022-07-17T09:47:01;21.90;96.20
44487;DHT22;30191;50.908;6.962;2022-07-17T09:49:27;22.00;96.40
44487;DHT22;30191;50.908;6.962;2022-07-17T09:51:54;22.20;95.70
44487;DHT22;30191;50.908;6.962;2022-07-17T09:54:21;22.20;95.80
44487;DHT22;30191;50.908;6.962;2022-07-17T09:56:50;22.30;95.50
44487;DHT22;30191;50.908;6.962;2022-07-17T09:59:17;22.40;95.70
44487;DHT22;30191;50.908;6.962;2022-07-17T10:01:45;22.40;95.80
44487;DHT22;30191;50.908;6.962;2022-07-17T10:04:15;22.40;94.00
44487;DHT22;30191;50.908;6.962;2022-07-17T10:06:42;22.40;94.70
44487;DHT22;30191;50.908;6.962;2022-07-17T10:09:08;22.40;95.10
44487;DHT22;30191;50.908;6.962;2022-07-17T10:11:38;22.40;94.40
44487;DHT22;30191;50.908;6.962;2022-07-17T10:14:06;22.50;94.80
44487;DHT22;30191;50.908;6.962;2022-07-17T10:16:34;22.50;94.20
44487;DHT22;30191;50.908;6.962;2022-07-17T10:19:02;22.60;94.20
44487;DHT22;30191;50.908;6.962;2022-07-17T10:21:30;22.60;93.80
44487;DHT22;30191;50.908;6.962;2022-07-17T10:31:59;22.80;93.10
44487;DHT22;30191;50.908;6.962;2022-07-17T10:37:14;22.90;93.20
44487;DHT22;30191;50.908;6.962;2022-07-17T10:39:40;22.90;93.10
44487;DHT22;30191;50.908;6.962;2022-07-17T10:42:36;22.80;92.90
44487;DHT22;30191;50.908;6.962;2022-07-17T10:50:40;22.90;92.70
44487;DHT22;30191;50.908;6.962;2022-07-17T10:53:32;22.90;93.00
44487;DHT22;30191;50.908;6.962;2022-07-17T10:55:59;22.80;92.30
44487;DHT22;30191;50.908;6.962;2022-07-17T10:58:32;22.80;92.20
44487;DHT22;30191;50.908;6.962;2022-07-17T11:08:45;22.80;92.30
44487;DHT22;30191;50.908;6.962;2022-07-17T11:11:12;22.90;92.20
44487;DHT22;30191;50.908;6.962;2022-07-17T11:13:38;23.00;92.10
44487;DHT22;30191;50.908;6.962;2022-07-17T11:16:04;23.10;92.10
44487;DHT22;30191;50.908;6.962;2022-07-17T11:18:30;23.10;92.10
44487;DHT22;30191;50.908;6.962;2022-07-17T11:20:57;23.10;92.20
44487;DHT22;30191;50.908;6.962;2022-07-17T11:23:29;23.10;91.70
44487;DHT22;30191;50.908;6.962;2022-07-17T11:28:40;23.00;91.60
44487;DHT22;30191;50.908;6.962;2022-07-17T11:31:23;23.10;91.80
44487;DHT22;30191;50.908;6.962;2022-07-17T11:33:55;23.10;91.60
44487;DHT22;30191;50.908;6.962;2022-07-17T11:36:29;23.10;91.30
44487;DHT22;30191;50.908;6.962;2022-07-17T11:38:57;23.10;91.50
44487;DHT22;30191;50.908;6.962;2022-07-17T11:41:34;23.20;90.80
44487;DHT22;30191;50.908;6.962;2022-07-17T11:44:01;23.20;90.30
44487;DHT22;30191;50.908;6.962;2022-07-17T11:46:29;23.40;90.40
44487;DHT22;30191;50.908;6.962;2022-07-17T11:48:55;23.50;90.20
44487;DHT22;30191;50.908;6.962;2022-07-17T11:51:20;23.60;91.00
44487;DHT22;30191;50.908;6.962;2022-07-17T11:53:46;23.60;90.70
44487;DHT22;30191;50.908;6.962;2022-07-17T11:56:22;23.60;90.80
44487;DHT22;30191;50.908;6.962;2022-07-17T11:58:48;23.60;90.30
44487;DHT22;30191;50.908;6.962;2022-07-17T12:01:15;23.70;90.50
44487;DHT22;30191;50.908;6.962;2022-07-17T12:03:42;23.80;90.10
44487;DHT22;30191;50.908;6.962;2022-07-17T12:06:07;23.80;90.10
44487;DHT22;30191;50.908;6.962;2022-07-17T12:08:34;23.80;90.10
44487;DHT22;30191;50.908;6.962;2022-07-17T12:11:02;23.90;90.10
44487;DHT22;30191;50.908;6.962;2022-07-17T12:14:03;24.00;88.00
44487;DHT22;30191;50.908;6.962;2022-07-17T12:16:31;24.10;89.20
44487;DHT22;30191;50.908;6.962;2022-07-17T12:19:26;24.20;87.80
44487;DHT22;30191;50.908;6.962;2022-07-17T12:21:59;24.30;88.40
44487;DHT22;30191;50.908;6.962;2022-07-17T12:24:28;24.40;88.00
44487;DHT22;30191;50.908;6.962;2022-07-17T12:26:56;24.50;86.50
44487;DHT22;30191;50.908;6.962;2022-07-17T12:29:22;24.60;87.40
44487;DHT22;30191;50.908;6.962;2022-07-17T12:31:48;24.70;87.30
44487;DHT22;30191;50.908;6.962;2022-07-17T12:34:14;24.80;85.00
44487;DHT22;30191;50.908;6.962;2022-07-17T12:36:40;25.00;84.00
44487;DHT22;30191;50.908;6.962;2022-07-17T12:39:06;25.20;83.40
44487;DHT22;30191;50.908;6.962;2022-07-17T12:41:31;25.30;85.40
44487;DHT22;30191;50.908;6.962;2022-07-17T12:43:57;25.40;83.50
44487;DHT22;30191;50.908;6.962;2022-07-17T12:46:23;25.60;82.30
44487;DHT22;30191;50.908;6.962;2022-07-17T12:48:49;25.60;82.80
44487;DHT22;30191;50.908;6.962;2022-07-17T12:51:15;25.60;82.80
44487;DHT22;30191;50.908;6.962;2022-07-17T12:53:43;25.60;81.90
44487;DHT22;30191;50.908;6.962;2022-07-17T12:56:09;25.60;80.10
44487;DHT22;30191;50.908;6.962;2022-07-17T12:58:36;25.70;81.30
44487;DHT22;30191;50.908;6.962;2022-07-17T13:01:02;25.80;81.00
44487;DHT22;30191;50.908;6.962;2022-07-17T13:03:27;25.90;80.70
44487;DHT22;30191;50.908;6.962;2022-07-17T13:05:53;25.90;79.70
44487;DHT22;30191;50.908;6.962;2022-07-17T13:08:19;26.00;78.00
44487;DHT22;30191;50.908;6.962;2022-07-17T13:10:45;26.10;77.30
44487;DHT22;30191;50.908;6.962;2022-07-17T13:13:11;26.10;76.90
44487;DHT22;30191;50.908;6.962;2022-07-17T13:15:37;26.20;76.10
44487;DHT22;30191;50.908;6.962;2022-07-17T13:18:02;26.40;76.30
44487;DHT22;30191;50.908;6.962;2022-07-17T13:20:28;26.50;74.10
44487;DHT22;30191;50.908;6.962;2022-07-17T13:22:54;26.60;75.20
44487;DHT22;30191;50.908;6.962;2022-07-17T13:25:20;26.70;75.80
44487;DHT22;30191;50.908;6.962;2022-07-17T13:27:46;26.90;75.30
44487;DHT22;30191;50.908;6.962;2022-07-17T13:30:12;27.00;75.60
44487;DHT22;30191;50.908;6.962;2022-07-17T13:32:38;27.10;75.90
44487;DHT22;30191;50.908;6.962;2022-07-17T13:35:05;27.20;76.50
44487;DHT22;30191;50.908;6.962;2022-07-17T13:37:32;27.40;76.60
44487;DHT22;30191;50.908;6.962;2022-07-17T13:39:57;27.40;75.40
44487;DHT22;30191;50.908;6.962;2022-07-17T13:42:23;27.50;74.70
44487;DHT22;30191;50.908;6.962;2022-07-17T13:44:49;27.60;73.80
44487;DHT22;30191;50.908;6.962;2022-07-17T13:47:15;27.60;73.90
44487;DHT22;30191;50.908;6.962;2022-07-17T13:49:40;27.80;73.30
44487;DHT22;30191;50.908;6.962;2022-07-17T13:52:06;27.70;74.90
44487;DHT22;30191;50.908;6.962;2022-07-17T13:54:32;27.60;76.90
44487;DHT22;30191;50.908;6.962;2022-07-17T13:56:58;27.50;79.30
44487;DHT22;30191;50.908;6.962;2022-07-17T13:59:25;27.40;81.50
44487;DHT22;30191;50.908;6.962;2022-07-17T14:01:51;27.40;74.60
44487;DHT22;30191;50.908;6.962;2022-07-17T14:04:18;27.30;83.20
44487;DHT22;30191;50.908;6.962;2022-07-17T14:06:43;27.20;80.50
44487;DHT22;30191;50.908;6.962;2022-07-17T14:09:09;27.10;82.00
44487;DHT22;30191;50.908;6.962;2022-07-17T14:11:36;27.00;80.50
44487;DHT22;30191;50.908;6.962;2022-07-17T14:14:02;26.90;80.50
44487;DHT22;30191;50.908;6.962;2022-07-17T14:16:28;26.80;79.60
44487;DHT22;30191;50.908;6.962;2022-07-17T14:18:53;26.80;79.20
44487;DHT22;30191;50.908;6.962;2022-07-17T14:21:30;26.70;76.50
44487;DHT22;30191;50.908;6.962;2022-07-17T14:23:57;26.80;80.20
44487;DHT22;30191;50.908;6.962;2022-07-17T14:26:23;26.80;73.10
44487;DHT22;30191;50.908;6.962;2022-07-17T14:28:49;27.00;79.50
44487;DHT22;30191;50.908;6.962;2022-07-17T14:31:14;26.90;83.20
44487;DHT22;30191;50.908;6.962;2022-07-17T14:33:42;26.80;85.30
44487;DHT22;30191;50.908;6.962;2022-07-17T14:36:08;26.70;86.60
44487;DHT22;30191;50.908;6.962;2022-07-17T14:38:34;26.60;85.20
44487;DHT22;30191;50.908;6.962;2022-07-17T14:41:00;26.80;77.20
44487;DHT22;30191;50.908;6.962;2022-07-17T14:43:26;27.00;78.10
44487;DHT22;30191;50.908;6.962;2022-07-17T14:45:51;26.90;84.10
44487;DHT22;30191;50.908;6.962;2022-07-17T14:48:17;26.90;81.90
44487;DHT22;30191;50.908;6.962;2022-07-17T14:50:43;26.90;81.20
44487;DHT22;30191;50.908;6.962;2022-07-17T14:53:08;26.80;83.00
44487;DHT22;30191;50.908;6.962;2022-07-17T14:55:34;26.70;80.70
44487;DHT22;30191;50.908;6.962;2022-07-17T14:58:00;26.70;80.90
44487;DHT22;30191;50.908;6.962;2022-07-17T15:00:25;26.60;83.20
44487;DHT22;30191;50.908;6.962;2022-07-17T15:02:51;26.60;81.80
44487;DHT22;30191;50.908;6.962;2022-07-17T15:05:17;26.60;82.60
44487;DHT22;30191;50.908;6.962;2022-07-17T15:07:43;26.60;83.20
44487;DHT22;30191;50.908;6.962;2022-07-17T15:10:09;26.60;84.10
44487;DHT22;30191;50.908;6.962;2022-07-17T15:12:34;26.70;84.00
44487;DHT22;30191;50.908;6.962;2022-07-17T15:15:00;27.10;80.40
44487;DHT22;30191;50.908;6.962;2022-07-17T15:17:26;28.30;78.00
44487;DHT22;30191;50.908;6.962;2022-07-17T15:19:51;29.50;73.90
44487;DHT22;30191;50.908;6.962;2022-07-17T15:22:17;30.60;71.70
44487;DHT22;30191;50.908;6.962;2022-07-17T15:24:43;31.30;71.40
44487;DHT22;30191;50.908;6.962;2022-07-17T15:27:08;31.90;69.80
44487;DHT22;30191;50.908;6.962;2022-07-17T15:29:34;32.30;71.00
44487;DHT22;30191;50.908;6.962;2022-07-17T15:32:00;32.50;68.80
44487;DHT22;30191;50.908;6.962;2022-07-17T15:34:26;32.80;67.80
44487;DHT22;30191;50.908;6.962;2022-07-17T15:36:51;33.00;67.90
44487;DHT22;30191;50.908;6.962;2022-07-17T15:39:17;33.20;68.20
44487;DHT22;30191;50.908;6.962;2022-07-17T15:41:45;33.40;67.30
44487;DHT22;30191;50.908;6.962;2022-07-17T15:44:10;33.50;64.80
44487;DHT22;30191;50.908;6.962;2022-07-17T15:46:36;33.60;62.20
44487;DHT22;30191;50.908;6.962;2022-07-17T15:49:02;33.40;65.10
44487;DHT22;30191;50.908;6.962;2022-07-17T15:51:28;33.40;64.20
44487;DHT22;30191;50.908;6.962;2022-07-17T15:53:55;33.40;62.20
44487;DHT22;30191;50.908;6.962;2022-07-17T15:56:22;33.40;62.80